Time;durP1;ratioP1;P1;durP2;ratioP2;P2;SDS_P1;SDS_P2;PMS_P1;PMS_P2;Temp;Humidity;BMP_temperature;BMP_pressure;BME280_temperature;BME280_humidity;BME280_pressure;Samples;Min_cycle;Max_cycle;Signal;HPM_P1;HPM_P2
2023/08/09 00:02:04;;;;;;;1.95;0.40;;;24.60;72.40;;;;;;10575544;27;19928;-33
2023/08/09 00:07:06;;;;;;;0.57;0.40;;;24.60;72.30;;;;;;10575132;27;20460;-33
2023/08/09 00:12:09;;;;;;;1.10;0.43;;;24.60;72.30;;;;;;10574829;27;20168;-32
2023/08/09 00:17:11;;;;;;;0.50;0.40;;;24.60;72.30;;;;;;10572084;27;20055;-41
2023/08/09 00:22:14;;;;;;;2.92;0.47;;;24.60;72.30;;;;;;10575887;27;20175;-36
2023/08/09 00:27:17;;;;;;;1.20;0.30;;;24.50;72.30;;;;;;10574935;27;20044;-32
2023/08/09 00:32:19;;;;;;;0.50;0.40;;;24.50;72.30;;;;;;10573588;27;20556;-32
2023/08/09 00:37:21;;;;;;;0.50;0.40;;;24.50;72.30;;;;;;10572887;27;20435;-33
2023/08/09 00:42:24;;;;;;;0.77;0.40;;;24.50;72.30;;;;;;10575251;27;20044;-32
2023/08/09 00:47:26;;;;;;;1.13;0.40;;;24.50;72.40;;;;;;10574556;27;20039;-36
2023/08/09 00:52:28;;;;;;;;;;;24.50;72.40;;;;;;10575663;27;20130;-32
2023/08/09 00:57:32;;;;;;;0.52;0.30;;;24.40;72.40;;;;;;10573295;27;20355;-34
2023/08/09 01:02:34;;;;;;;0.70;0.55;;;24.40;72.50;;;;;;10572522;27;20046;-34
2023/08/09 01:07:39;;;;;;;;;;;24.40;72.60;;;;;;10568983;27;20130;-35
2023/08/09 01:12:47;;;;;;;0.40;0.32;;;24.30;72.60;;;;;;10560189;27;19920;-31
2023/08/09 01:17:51;;;;;;;0.85;0.40;;;24.30;72.70;;;;;;10570749;27;20134;-34
2023/08/09 01:23:00;;;;;;;1.02;0.45;;;24.30;72.70;;;;;;10567858;27;20069;-33
2023/08/09 01:28:05;;;;;;;0.38;0.32;;;24.30;72.80;;;;;;10572209;27;20044;-29
2023/08/09 01:33:07;;;;;;;0.57;0.40;;;24.30;72.80;;;;;;10571367;27;20456;-32
2023/08/09 01:38:15;;;;;;;0.55;0.43;;;24.30;72.80;;;;;;10570543;27;20138;-30
2023/08/09 01:43:20;;;;;;;0.98;0.40;;;24.20;72.80;;;;;;10571544;27;20054;-33
2023/08/09 01:48:23;;;;;;;2.05;0.60;;;24.20;72.80;;;;;;10569149;27;20036;-38
2023/08/09 01:53:25;;;;;;;;;;;24.20;72.80;;;;;;10570650;27;20108;-40
2023/08/09 01:58:28;;;;;;;0.40;0.40;;;24.20;72.90;;;;;;10573381;27;20034;-36
2023/08/09 02:03:29;;;;;;;1.02;0.50;;;24.20;72.90;;;;;;10572192;27;20088;-31
2023/08/09 02:08:31;;;;;;;;;;;24.10;72.90;;;;;;10570655;27;20048;-36
2023/08/09 02:13:35;;;;;;;1.07;0.50;;;24.10;73.00;;;;;;10571800;27;19959;-36
2023/08/09 02:18:36;;;;;;;0.60;0.45;;;24.10;73.00;;;;;;10571599;27;20831;-30
2023/08/09 02:23:39;;;;;;;0.77;0.60;;;24.10;73.20;;;;;;10571864;27;20374;-38
2023/08/09 02:28:42;;;;;;;;;;;24.10;73.10;;;;;;10569332;27;20705;-34
2023/08/09 02:33:44;;;;;;;1.40;0.70;;;24.10;73.20;;;;;;10567757;27;19927;-33
2023/08/09 02:38:46;;;;;;;4.25;1.20;;;24.10;73.20;;;;;;10568005;27;20066;-35
2023/08/09 02:43:49;;;;;;;0.70;0.52;;;24.10;73.30;;;;;;10568050;27;20091;-30
2023/08/09 02:48:51;;;;;;;0.70;0.50;;;24.10;73.30;;;;;;10567542;27;20066;-36
2023/08/09 02:54:00;;;;;;;1.00;0.50;;;24.00;73.30;;;;;;10572895;27;20048;-31
2023/08/09 03:15:29;;;;;;;0.70;0.35;;;23.90;73.80;;;;;;10441478;27;2023769;-35
2023/08/09 03:20:33;;;;;;;0.50;0.50;;;23.90;74.60;;;;;;10521577;28;20035;-32
2023/08/09 03:25:36;;;;;;;0.47;0.40;;;23.90;73.90;;;;;;10521196;28;20040;-39
2023/08/09 03:30:39;;;;;;;1.17;0.70;;;23.90;73.90;;;;;;10520211;28;20127;-34
2023/08/09 03:35:44;;;;;;;1.30;0.57;;;23.90;73.90;;;;;;10520622;28;20462;-33
2023/08/09 03:40:45;;;;;;;1.33;0.73;;;23.90;74.00;;;;;;10524857;28;20283;-33
2023/08/09 03:45:48;;;;;;;0.50;0.50;;;23.90;73.90;;;;;;10523636;28;20508;-32
2023/08/09 03:50:50;;;;;;;0.40;0.30;;;23.80;73.90;;;;;;10524375;28;20135;-27
2023/08/09 03:55:52;;;;;;;;;;;23.90;73.90;;;;;;10524175;28;21730;-33
2023/08/09 04:00:55;;;;;;;0.67;0.40;;;23.80;73.90;;;;;;10522565;28;20062;-33
2023/08/09 04:05:57;;;;;;;2.30;0.70;;;23.90;74.00;;;;;;10519820;28;20556;-34
2023/08/09 04:11:00;;;;;;;;;;;23.80;74.10;;;;;;10523114;28;20135;-35
2023/08/09 04:16:03;;;;;;;1.10;0.68;;;23.80;74.20;;;;;;10519248;28;19924;-30
2023/08/09 04:21:06;;;;;;;1.48;0.60;;;23.80;74.60;;;;;;10522141;28;20044;-34
2023/08/09 04:26:08;;;;;;;1.00;0.55;;;23.80;74.10;;;;;;10491606;28;20052;-32
2023/08/09 04:31:11;;;;;;;;;;;23.80;74.10;;;;;;10486799;28;20144;-35
2023/08/09 04:36:14;;;;;;;2.25;0.80;;;23.80;74.20;;;;;;10493507;28;19931;-29
2023/08/09 04:41:16;;;;;;;1.55;0.40;;;23.80;74.30;;;;;;10496024;28;20040;-31
2023/08/09 04:46:19;;;;;;;0.93;0.70;;;23.70;74.20;;;;;;10492750;28;20504;-34
2023/08/09 04:51:21;;;;;;;0.70;0.35;;;23.80;74.30;;;;;;10492451;28;20087;-31
2023/08/09 04:56:23;;;;;;;;;;;23.70;74.20;;;;;;10492454;28;20071;-32
2023/08/09 05:01:26;;;;;;;2.60;0.80;;;23.80;74.30;;;;;;10482905;28;19990;-33
2023/08/09 05:06:28;;;;;;;0.88;0.50;;;23.80;74.30;;;;;;10480741;28;20494;-35
2023/08/09 05:11:30;;;;;;;1.48;0.80;;;23.80;74.30;;;;;;10485507;28;20143;-32
2023/08/09 05:16:34;;;;;;;0.63;0.50;;;23.80;74.40;;;;;;10489609;28;20093;-33
2023/08/09 05:21:36;;;;;;;1.92;0.73;;;23.80;74.60;;;;;;10489639;28;20508;-31
2023/08/09 05:26:38;;;;;;;;;;;23.80;74.80;;;;;;10490890;28;20040;-31
2023/08/09 05:31:41;;;;;;;1.23;0.67;;;23.80;74.80;;;;;;10490777;28;19978;-38
2023/08/09 05:36:44;;;;;;;0.80;0.50;;;23.70;74.80;;;;;;10488174;28;20577;-38
2023/08/09 05:41:46;;;;;;;1.33;0.60;;;23.80;74.90;;;;;;10489102;28;20064;-32
2023/08/09 05:46:49;;;;;;;;;;;23.80;74.90;;;;;;10488943;28;20136;-31
2023/08/09 05:51:51;;;;;;;1.00;0.55;;;23.80;74.90;;;;;;10484790;28;19931;-33
2023/08/09 05:56:53;;;;;;;0.90;0.50;;;23.80;74.80;;;;;;10475544;28;20075;-31
2023/08/09 06:01:57;;;;;;;3.60;0.70;;;23.90;75.60;;;;;;10458872;28;20183;-37
2023/08/09 06:06:59;;;;;;;3.65;0.70;;;23.90;75.60;;;;;;10457604;28;20694;-29
2023/08/09 06:12:00;;;;;;;;;;;24.00;75.80;;;;;;10457710;28;20508;-46
2023/08/09 06:17:04;;;;;;;1.92;0.70;;;24.00;76.30;;;;;;10473347;28;19920;-31
2023/08/09 06:22:06;;;;;;;5.28;1.33;;;24.00;75.70;;;;;;10475190;28;20065;-31
2023/08/09 06:27:07;;;;;;;;;;;23.60;77.80;;;;;;10472976;28;20525;-39
2023/08/09 06:32:10;;;;;;;2.67;1.30;;;23.20;80.20;;;;;;10470753;28;19921;-31
2023/08/09 06:37:12;;;;;;;1.58;0.95;;;23.50;80.60;;;;;;10479362;28;20098;-36
2023/08/09 06:42:14;;;;;;;2.30;1.08;;;23.30;81.60;;;;;;10480094;28;20106;-31
2023/08/09 06:47:17;;;;;;;2.38;0.80;;;23.00;82.80;;;;;;10475588;28;20084;-35
2023/08/09 06:52:19;;;;;;;1.15;0.80;;;23.10;82.70;;;;;;10471742;28;20147;-30
2023/08/09 06:57:21;;;;;;;2.60;0.77;;;22.90;83.50;;;;;;10477888;28;20124;-36
2023/08/09 07:02:24;;;;;;;9.25;1.63;;;23.30;80.60;;;;;;10467486;28;20481;-37
2023/08/09 07:07:26;;;;;;;3.92;0.85;;;22.50;87.20;;;;;;10467509;28;20072;-33
2023/08/09 07:12:29;;;;;;;4.10;1.38;;;22.70;85.10;;;;;;10462089;28;20476;-38
2023/08/09 07:17:32;;;;;;;2.08;1.40;;;22.60;88.40;;;;;;10464486;28;20114;-31
2023/08/09 07:22:34;;;;;;;6.53;2.70;;;21.40;94.00;;;;;;10475264;28;20063;-30
2023/08/09 07:27:41;;;;;;;3.88;1.80;;;20.60;98.60;;;;;;10473621;28;20068;-36
2023/08/09 07:32:44;;;;;;;3.35;1.58;;;21.00;96.90;;;;;;10479906;28;20052;-32
2023/08/09 07:37:46;;;;;;;7.57;1.95;;;20.80;98.10;;;;;;10467091;28;20139;-37
2023/08/09 07:42:48;;;;;;;6.10;2.15;;;21.00;97.20;;;;;;10481696;28;20048;-32
2023/08/09 07:47:52;;;;;;;6.75;1.63;;;19.90;99.90;;;;;;10469133;28;20465;-33
2023/08/09 07:52:53;;;;;;;4.68;1.70;;;20.30;99.90;;;;;;10467421;28;20561;-34
2023/08/09 07:57:55;;;;;;;3.33;1.98;;;21.30;96.80;;;;;;10482102;28;20074;-39
2023/08/09 08:02:58;;;;;;;6.10;1.85;;;20.70;98.00;;;;;;10472198;28;20052;-31
2023/08/09 08:08:00;;;;;;;2.72;1.20;;;20.80;98.30;;;;;;10486766;28;20045;-33
2023/08/09 08:13:02;;;;;;;3.03;1.13;;;20.70;98.30;;;;;;10473997;28;20056;-34
2023/08/09 08:18:06;;;;;;;2.70;1.30;;;20.60;98.10;;;;;;10482830;28;20132;-41
2023/08/09 08:23:08;;;;;;;2.38;1.00;;;20.80;98.40;;;;;;10488131;28;20126;-36
2023/08/09 08:28:10;;;;;;;14.60;1.50;;;20.90;97.90;;;;;;10490537;28;20990;-40
2023/08/09 08:33:13;;;;;;;4.65;1.77;;;21.40;95.30;;;;;;10474007;28;20059;-36
2023/08/09 08:38:15;;;;;;;9.20;1.90;;;21.00;96.90;;;;;;10479903;28;20102;-29
2023/08/09 08:43:17;;;;;;;;;;;20.60;99.90;;;;;;10468255;28;20045;-31
2023/08/09 08:48:21;;;;;;;5.30;1.53;;;20.50;99.90;;;;;;10495189;28;20031;-33
2023/08/09 08:53:23;;;;;;;5.82;1.30;;;20.60;99.90;;;;;;10483737;28;20444;-33
2023/08/09 08:58:25;;;;;;;6.85;1.67;;;21.30;98.60;;;;;;10488707;28;20040;-35
2023/08/09 09:03:28;;;;;;;4.50;1.00;;;20.80;99.70;;;;;;10489068;28;20056;-37
2023/08/09 09:08:30;;;;;;;3.08;0.77;;;21.90;95.50;;;;;;10486411;28;20064;-36
2023/08/09 09:13:33;;;;;;;9.80;1.85;;;20.90;98.50;;;;;;10451051;28;20060;-40
2023/08/09 09:18:42;;;;;;;5.10;1.25;;;20.90;97.60;;;;;;10446606;28;20044;-35
2023/08/09 09:23:44;;;;;;;6.72;1.48;;;21.30;96.70;;;;;;10497102;28;20044;-31
2023/08/09 09:28:47;;;;;;;;;;;21.10;96.50;;;;;;10481877;28;20102;-31
2023/08/09 09:33:52;;;;;;;3.22;1.27;;;21.60;95.70;;;;;;10492530;28;20276;-34
2023/08/09 09:38:54;;;;;;;10.25;1.60;;;21.30;95.00;;;;;;10481982;28;21668;-34
2023/08/09 09:43:56;;;;;;;8.27;2.10;;;21.00;96.00;;;;;;10473575;28;20410;-40
2023/08/09 09:49:05;;;;;;;7.30;1.50;;;20.10;97.90;;;;;;10473632;28;20569;-33
2023/08/09 09:54:08;;;;;;;4.88;0.75;;;20.40;98.00;;;;;;10468749;28;20071;-35
2023/08/09 09:59:10;;;;;;;7.28;1.20;;;21.90;94.10;;;;;;10481128;28;20052;-32
2023/08/09 10:04:16;;;;;;;5.68;1.20;;;21.00;95.50;;;;;;10476803;28;20068;-30
2023/08/09 10:09:19;;;;;;;6.25;1.13;;;21.20;93.30;;;;;;10495238;28;20076;-34
2023/08/09 10:14:26;;;;;;;6.10;1.15;;;21.00;96.00;;;;;;10480343;28;20456;-30
2023/08/09 10:19:31;;;;;;;6.75;1.60;;;21.20;96.00;;;;;;10489967;28;20421;-33
2023/08/09 10:24:32;;;;;;;4.90;0.80;;;21.50;94.80;;;;;;10490179;28;20127;-33
2023/08/09 10:29:34;;;;;;;6.72;1.58;;;21.20;95.80;;;;;;10477912;28;20482;-35
2023/08/09 10:34:40;;;;;;;4.43;1.00;;;21.70;92.60;;;;;;10475000;28;20080;-31
2023/08/09 10:39:44;;;;;;;4.13;0.90;;;20.60;95.50;;;;;;10486749;28;20045;-38
2023/08/09 10:44:48;;;;;;;4.65;1.50;;;21.40;92.90;;;;;;10470932;28;20468;-34
2023/08/09 10:50:06;;;;;;;3.97;1.10;;;20.90;94.40;;;;;;10481805;28;20049;-36
2023/08/09 10:55:26;;;;;;;4.38;1.00;;;21.60;92.80;;;;;;10495925;28;20201;-36
2023/08/09 11:00:36;;;;;;;3.90;1.25;;;21.60;93.10;;;;;;10483877;28;20048;-30
2023/08/09 11:05:39;;;;;;;9.70;1.30;;;21.20;93.70;;;;;;10460124;28;20101;-33
2023/08/09 11:10:42;;;;;;;2.17;1.02;;;21.50;92.80;;;;;;10481867;28;20470;-33
2023/08/09 11:15:45;;;;;;;3.20;0.88;;;21.50;94.80;;;;;;10483406;28;20092;-33
2023/08/09 11:20:48;;;;;;;3.00;1.00;;;21.60;92.50;;;;;;10485445;28;20040;-32
2023/08/09 11:25:50;;;;;;;6.35;0.80;;;21.90;92.90;;;;;;10493513;28;20653;-39
2023/08/09 11:30:52;;;;;;;4.88;1.08;;;22.60;90.80;;;;;;10478424;28;20114;-41
2023/08/09 11:35:58;;;;;;;3.88;1.08;;;20.90;93.80;;;;;;10494529;28;20135;-37
2023/08/09 11:41:00;;;;;;;2.63;0.77;;;21.60;92.50;;;;;;10502813;28;20147;-36
2023/08/09 11:46:02;;;;;;;;;;;21.40;92.30;;;;;;10481601;28;20041;-35
2023/08/09 11:51:06;;;;;;;;;;;22.50;89.10;;;;;;10486583;28;19924;-38
2023/08/09 11:56:12;;;;;;;3.97;1.00;;;22.10;91.80;;;;;;10490767;28;19933;-33
2023/08/09 12:01:21;;;;;;;7.95;0.95;;;21.60;92.10;;;;;;10499634;28;20084;-33
2023/08/09 12:06:37;;;;;;;6.07;1.40;;;22.10;90.50;;;;;;10496859;28;20037;-30
2023/08/09 12:11:47;;;;;;;2.85;0.93;;;21.70;92.00;;;;;;10479698;28;20115;-34
2023/08/09 12:16:49;;;;;;;4.05;1.33;;;22.10;91.20;;;;;;10496993;28;20084;-38
2023/08/09 12:21:53;;;;;;;9.55;1.33;;;22.00;91.80;;;;;;10491629;28;20171;-30
2023/08/09 12:26:55;;;;;;;8.65;1.25;;;21.30;88.70;;;;;;10486780;28;20441;-35
2023/08/09 12:31:56;;;;;;;;;;;22.90;85.70;;;;;;10473608;28;20061;-30
2023/08/09 12:37:00;;;;;;;2.87;0.70;;;22.60;86.60;;;;;;10499098;28;19946;-28
2023/08/09 12:42:02;;;;;;;6.57;1.33;;;22.60;88.60;;;;;;10481717;28;20061;-30
2023/08/09 12:47:04;;;;;;;3.40;0.70;;;21.80;87.60;;;;;;10484046;28;20041;-34
2023/08/09 12:52:08;;;;;;;;;;;22.80;87.50;;;;;;10489091;28;20041;-34
2023/08/09 12:57:10;;;;;;;5.43;1.15;;;23.20;81.50;;;;;;10485825;28;19942;-33
2023/08/09 13:02:12;;;;;;;5.63;1.45;;;23.00;80.80;;;;;;10477303;28;20470;-31
2023/08/09 13:07:15;;;;;;;5.32;0.70;;;22.80;80.00;;;;;;10498408;28;20102;-30
2023/08/09 13:12:17;;;;;;;3.25;1.02;;;22.70;88.10;;;;;;10479290;28;20123;-33
2023/08/09 13:17:19;;;;;;;2.00;0.80;;;23.00;77.90;;;;;;10488057;28;20613;-31
2023/08/09 13:22:22;;;;;;;;;;;23.50;77.60;;;;;;10504738;28;20123;-37
2023/08/09 13:27:24;;;;;;;1.88;0.93;;;22.60;76.90;;;;;;10492083;28;19963;-39
2023/08/09 13:32:26;;;;;;;3.90;0.82;;;22.20;81.90;;;;;;10467249;28;20044;-33
2023/08/09 13:37:30;;;;;;;6.50;1.23;;;23.00;82.00;;;;;;10486353;28;20119;-43
2023/08/09 13:42:32;;;;;;;1.92;0.55;;;23.90;74.00;;;;;;10486065;28;20128;-31
2023/08/09 13:47:34;;;;;;;2.25;0.90;;;23.90;67.80;;;;;;10472759;28;20041;-34
2023/08/09 13:52:37;;;;;;;3.92;0.77;;;22.90;77.40;;;;;;10478619;28;20720;-39
2023/08/09 13:57:39;;;;;;;4.10;1.10;;;23.50;75.20;;;;;;10472121;28;20180;-39
2023/08/09 14:02:41;;;;;;;5.80;1.20;;;23.90;74.10;;;;;;10476544;28;20148;-37
2023/08/09 14:07:44;;;;;;;4.97;1.20;;;23.60;75.50;;;;;;10476817;28;20041;-37
2023/08/09 14:12:46;;;;;;;2.90;0.82;;;23.80;78.60;;;;;;10483094;28;20052;-34
2023/08/09 14:17:48;;;;;;;;;;;24.80;65.90;;;;;;10493170;28;20049;-34
2023/08/09 14:22:51;;;;;;;3.60;0.73;;;24.30;67.60;;;;;;10476293;28;19960;-35
2023/08/09 14:27:53;;;;;;;1.65;0.65;;;24.80;73.20;;;;;;10471652;28;20080;-34
2023/08/09 14:32:55;;;;;;;3.30;1.15;;;24.10;69.40;;;;;;10483051;28;20512;-37
2023/08/09 14:37:58;;;;;;;;;;;24.00;66.10;;;;;;10469574;28;20044;-33
2023/08/09 14:43:01;;;;;;;4.20;0.93;;;24.80;73.50;;;;;;10459728;28;20052;-31
2023/08/09 14:48:03;;;;;;;2.08;0.55;;;25.20;64.70;;;;;;10469155;28;20125;-34
2023/08/09 14:53:06;;;;;;;2.47;0.70;;;25.30;67.30;;;;;;10500124;28;20048;-32
2023/08/09 14:58:08;;;;;;;2.28;0.73;;;25.50;64.40;;;;;;10466105;28;20075;-35
2023/08/09 15:03:10;;;;;;;2.47;0.80;;;25.70;63.00;;;;;;10470568;28;20103;-35
2023/08/09 15:08:15;;;;;;;;;;;26.20;63.10;;;;;;10485090;28;20061;-39
2023/08/09 15:13:17;;;;;;;2.25;0.63;;;26.50;67.40;;;;;;10467197;28;19932;-39
2023/08/09 15:18:19;;;;;;;3.53;1.25;;;26.00;59.00;;;;;;10464807;28;20052;-39
2023/08/09 15:23:22;;;;;;;;;;;26.50;61.30;;;;;;10476418;28;20098;-35
2023/08/09 15:28:24;;;;;;;7.03;2.10;;;27.10;56.50;;;;;;10453940;28;20015;-36
2023/08/09 15:33:26;;;;;;;4.70;1.50;;;27.30;55.20;;;;;;10470898;28;20726;-37
2023/08/09 15:38:29;;;;;;;7.13;0.85;;;26.70;59.20;;;;;;10458591;28;20040;-31
2023/08/09 15:43:32;;;;;;;4.72;1.10;;;27.10;61.20;;;;;;10473573;28;20052;-31
2023/08/09 15:48:34;;;;;;;1.23;0.85;;;27.00;57.40;;;;;;10469314;28;20048;-28
2023/08/09 15:53:37;;;;;;;1.73;0.90;;;27.10;58.20;;;;;;10467057;28;20207;-37
2023/08/09 15:58:39;;;;;;;3.95;1.35;;;27.40;58.60;;;;;;10482739;28;20072;-37
2023/08/09 16:03:41;;;;;;;6.43;1.50;;;27.60;60.70;;;;;;10478214;28;20144;-37
2023/08/09 16:08:45;;;;;;;8.63;2.05;;;27.70;59.80;;;;;;10471409;28;20077;-37
2023/08/09 16:13:47;;;;;;;5.20;1.70;;;27.90;60.90;;;;;;10467213;28;20056;-35
2023/08/09 16:18:49;;;;;;;9.90;1.80;;;27.80;57.60;;;;;;10472749;28;20506;-35
2023/08/09 16:23:52;;;;;;;6.70;1.40;;;27.40;59.70;;;;;;10479459;28;20083;-34
2023/08/09 16:28:54;;;;;;;8.18;1.70;;;27.40;60.00;;;;;;10476913;28;20044;-35
2023/08/09 16:33:56;;;;;;;11.50;1.23;;;27.90;58.50;;;;;;10477866;28;20155;-39
2023/08/09 16:38:59;;;;;;;3.63;1.17;;;28.20;58.90;;;;;;10463029;28;20577;-34
2023/08/09 16:44:01;;;;;;;3.97;0.70;;;27.30;58.80;;;;;;10469464;28;20052;-33
2023/08/09 16:49:03;;;;;;;3.55;0.80;;;27.40;60.40;;;;;;10500227;28;20077;-41
2023/08/09 16:54:07;;;;;;;1.83;0.73;;;28.00;59.80;;;;;;10490865;28;20102;-39
2023/08/09 16:59:09;;;;;;;5.05;1.48;;;28.70;58.10;;;;;;10491368;28;20117;-32
2023/08/09 17:04:10;;;;;;;1.52;0.73;;;28.60;58.10;;;;;;10490908;28;20539;-46
2023/08/09 17:09:13;;;;;;;4.32;0.60;;;28.60;58.10;;;;;;10478526;28;20044;-40
2023/08/09 17:14:15;;;;;;;2.50;0.70;;;28.50;58.50;;;;;;10470922;28;20057;-34
2023/08/09 17:19:17;;;;;;;5.88;0.77;;;28.70;58.00;;;;;;10475761;28;20075;-36
2023/08/09 17:24:21;;;;;;;2.20;1.00;;;27.70;59.40;;;;;;10482960;28;20055;-32
2023/08/09 17:29:23;;;;;;;2.30;1.00;;;27.20;59.80;;;;;;10500327;28;20072;-30
2023/08/09 17:34:25;;;;;;;6.20;1.10;;;27.90;57.90;;;;;;10488917;28;20092;-37
2023/08/09 17:39:28;;;;;;;3.53;0.63;;;27.00;58.10;;;;;;10484211;28;20124;-29
2023/08/09 17:44:30;;;;;;;3.03;0.88;;;27.80;58.50;;;;;;10486320;28;20040;-31
2023/08/09 17:49:32;;;;;;;7.32;0.57;;;27.70;58.60;;;;;;10471428;28;20058;-32
2023/08/09 17:54:35;;;;;;;5.25;0.95;;;27.90;57.90;;;;;;10486824;28;20386;-32
2023/08/09 17:59:37;;;;;;;1.35;0.60;;;27.80;58.20;;;;;;10481526;28;20044;-31
2023/08/09 18:04:39;;;;;;;2.58;0.60;;;27.40;58.80;;;;;;10482226;28;20796;-35
2023/08/09 18:09:42;;;;;;;1.13;0.40;;;26.70;56.60;;;;;;10483940;28;20097;-38
2023/08/09 18:14:44;;;;;;;2.05;0.60;;;27.80;57.90;;;;;;10477097;28;20513;-31
2023/08/09 18:19:46;;;;;;;1.77;0.45;;;28.00;57.40;;;;;;10482673;28;20582;-41
2023/08/09 18:24:49;;;;;;;3.53;0.50;;;27.90;57.30;;;;;;10483767;28;20048;-33
2023/08/09 18:29:51;;;;;;;1.85;0.47;;;27.60;57.90;;;;;;10473740;28;20044;-35
2023/08/09 18:34:53;;;;;;;0.40;0.40;;;27.90;57.10;;;;;;10472408;28;20132;-35
2023/08/09 18:39:56;;;;;;;2.53;0.63;;;27.90;57.10;;;;;;10476165;28;20049;-29
2023/08/09 18:44:58;;;;;;;2.97;0.63;;;27.30;56.10;;;;;;10484023;28;20154;-36
2023/08/09 18:50:03;;;;;;;4.38;0.70;;;27.50;55.30;;;;;;10474052;28;20101;-33
2023/08/09 18:55:07;;;;;;;1.08;0.52;;;27.80;56.90;;;;;;10481982;28;20470;-34
2023/08/09 19:00:12;;;;;;;2.72;0.60;;;27.70;57.00;;;;;;10477147;28;20045;-39
2023/08/09 19:05:14;;;;;;;1.85;0.73;;;27.90;56.80;;;;;;10472964;28;20048;-33
2023/08/09 19:10:19;;;;;;;2.33;0.65;;;27.80;56.70;;;;;;10475134;28;20080;-37
2023/08/09 19:15:21;;;;;;;6.90;1.30;;;27.80;56.60;;;;;;10489593;28;20060;-36
2023/08/09 19:20:24;;;;;;;2.38;0.70;;;27.80;56.60;;;;;;10487495;28;20673;-30
2023/08/09 19:25:28;;;;;;;2.85;0.57;;;27.80;57.20;;;;;;10463765;28;20041;-30
2023/08/09 19:30:30;;;;;;;8.35;1.92;;;27.90;57.10;;;;;;10475754;28;20106;-33
2023/08/09 19:35:32;;;;;;;3.17;0.80;;;27.70;57.60;;;;;;10488681;28;20084;-35
2023/08/09 19:40:36;;;;;;;5.47;1.23;;;27.80;57.40;;;;;;10472152;28;20493;-36
2023/08/09 19:45:38;;;;;;;0.98;0.43;;;27.80;57.50;;;;;;10470195;28;20064;-36
2023/08/09 19:50:41;;;;;;;2.10;0.80;;;27.80;57.60;;;;;;10471185;28;20106;-33
2023/08/09 19:55:45;;;;;;;1.25;0.60;;;27.70;57.80;;;;;;10476042;28;20056;-34
2023/08/09 20:00:47;;;;;;;1.88;0.45;;;27.70;58.00;;;;;;10485686;28;20717;-35
2023/08/09 20:05:49;;;;;;;4.13;0.82;;;27.60;58.20;;;;;;10480688;28;20080;-36
2023/08/09 20:10:52;;;;;;;1.77;0.57;;;27.60;58.20;;;;;;10484730;28;20753;-32
2023/08/09 20:15:54;;;;;;;2.40;0.63;;;27.50;58.40;;;;;;10463939;28;20089;-33
2023/08/09 20:20:56;;;;;;;1.73;0.80;;;27.50;58.60;;;;;;10489175;28;20044;-33
2023/08/09 20:25:59;;;;;;;2.05;0.88;;;27.40;58.70;;;;;;10472392;28;20136;-34
2023/08/09 20:31:02;;;;;;;2.15;0.75;;;27.40;58.90;;;;;;10493189;28;20578;-34
2023/08/09 20:36:05;;;;;;;2.58;0.80;;;27.30;59.00;;;;;;10487751;28;20097;-39
2023/08/09 20:41:08;;;;;;;1.52;0.52;;;27.30;59.20;;;;;;10478396;28;20044;-31
2023/08/09 20:46:10;;;;;;;2.80;0.80;;;27.20;59.40;;;;;;10472964;28;20159;-32
2023/08/09 20:51:11;;;;;;;2.08;0.80;;;27.20;59.50;;;;;;10474894;28;20071;-27
2023/08/09 20:56:15;;;;;;;1.40;0.77;;;27.20;59.70;;;;;;10475739;28;20481;-33
2023/08/09 21:01:16;;;;;;;2.47;0.52;;;27.10;59.90;;;;;;10479410;28;20051;-33
2023/08/09 21:06:20;;;;;;;0.98;0.60;;;27.10;59.90;;;;;;10478098;28;20052;-33
2023/08/09 21:11:23;;;;;;;0.73;0.70;;;27.00;60.00;;;;;;10490697;28;20048;-32
2023/08/09 21:16:25;;;;;;;1.30;0.80;;;27.00;60.10;;;;;;10486324;28;20140;-38
2023/08/09 21:21:27;;;;;;;1.90;0.68;;;26.90;60.20;;;;;;10489559;28;20068;-36
2023/08/09 21:26:30;;;;;;;1.45;0.65;;;26.90;60.40;;;;;;10482322;28;20102;-35
2023/08/09 21:31:32;;;;;;;1.27;0.60;;;26.90;60.40;;;;;;10482679;28;20095;-33
2023/08/09 21:36:34;;;;;;;1.58;0.80;;;26.80;60.60;;;;;;10485213;28;20135;-36
2023/08/09 21:41:37;;;;;;;1.50;0.60;;;26.80;60.70;;;;;;10478850;28;20067;-38
2023/08/09 21:46:39;;;;;;;2.53;0.65;;;26.70;60.70;;;;;;10461497;28;20186;-34
2023/08/09 21:51:41;;;;;;;1.15;0.90;;;26.70;60.70;;;;;;10471006;28;20135;-31
2023/08/09 21:56:45;;;;;;;1.83;0.80;;;26.60;60.80;;;;;;10481425;28;20052;-32
2023/08/09 22:01:47;;;;;;;1.88;0.50;;;26.60;60.80;;;;;;10480040;28;20047;-32
2023/08/09 22:06:49;;;;;;;3.33;0.90;;;26.60;60.90;;;;;;10478001;28;20094;-41
2023/08/09 22:11:52;;;;;;;2.80;0.80;;;26.50;60.90;;;;;;10466601;28;20461;-37
2023/08/09 22:16:54;;;;;;;1.10;0.60;;;26.40;61.00;;;;;;10479751;28;20056;-36
2023/08/09 22:21:55;;;;;;;0.95;0.60;;;26.40;61.00;;;;;;10486756;28;20095;-40
2023/08/09 22:26:59;;;;;;;2.08;0.68;;;26.40;61.10;;;;;;10483339;28;20094;-35
2023/08/09 22:32:01;;;;;;;2.35;0.88;;;26.40;61.20;;;;;;10481594;28;20467;-31
2023/08/09 22:37:02;;;;;;;1.40;0.73;;;26.30;61.80;;;;;;10473290;28;20059;-33
2023/08/09 22:42:06;;;;;;;2.05;0.70;;;26.30;61.40;;;;;;10482080;28;20079;-40
2023/08/09 22:47:08;;;;;;;3.10;0.60;;;26.30;61.40;;;;;;10479775;28;20064;-34
2023/08/09 22:52:10;;;;;;;2.42;0.93;;;26.20;62.00;;;;;;10467922;28;20094;-35
2023/08/09 22:57:13;;;;;;;1.13;0.60;;;26.20;61.50;;;;;;10474698;28;20045;-31
2023/08/09 23:02:15;;;;;;;1.20;0.73;;;26.10;61.50;;;;;;10475939;28;20040;-36
2023/08/09 23:07:17;;;;;;;1.40;0.60;;;26.10;61.60;;;;;;10474731;28;20109;-34
2023/08/09 23:12:20;;;;;;;0.88;0.63;;;26.10;61.60;;;;;;10468635;28;20511;-30
2023/08/09 23:17:24;;;;;;;1.05;0.50;;;26.00;61.80;;;;;;10476052;28;20083;-31
2023/08/09 23:22:27;;;;;;;2.45;1.20;;;26.00;61.80;;;;;;10483794;28;20044;-36
2023/08/09 23:27:30;;;;;;;2.92;0.60;;;26.00;62.00;;;;;;10483320;28;20463;-40
2023/08/09 23:32:32;;;;;;;0.73;0.68;;;25.90;61.90;;;;;;10484455;28;20048;-31
2023/08/09 23:37:34;;;;;;;1.02;0.57;;;25.90;62.00;;;;;;10464887;28;20044;-38
2023/08/09 23:42:37;;;;;;;1.08;0.60;;;25.90;62.70;;;;;;10483502;28;20052;-37
2023/08/09 23:47:39;;;;;;;0.95;0.60;;;25.80;62.10;;;;;;10473716;28;20052;-33
2023/08/09 23:52:40;;;;;;;2.28;0.68;;;25.80;62.10;;;;;;10467680;28;20067;-35
2023/08/09 23:57:44;;;;;;;1.95;0.60;;;25.80;62.30;;;;;;10465278;28;20056;-30
